createdAt,value
2019-02-02T00:02:01.620Z,17.91
2019-02-02T00:07:56.676Z,13.87
2019-02-02T00:13:51.680Z,13.97
2019-02-02T00:19:46.663Z,12.53
2019-02-02T00:25:41.687Z,9.96
2019-02-02T00:31:36.687Z,13.87
2019-02-02T00:37:31.669Z,12.94
2019-02-02T00:43:26.667Z,11.81
2019-02-02T00:49:21.658Z,6.21
2019-02-02T00:55:16.670Z,12.99
2019-02-02T01:01:11.698Z,8.26
2019-02-02T01:07:06.673Z,9.09
2019-02-02T01:13:01.678Z,11.02
2019-02-02T01:18:56.707Z,11.13
2019-02-02T01:24:51.734Z,12.15
2019-02-02T01:30:46.731Z,7.12
2019-02-02T01:36:41.723Z,10.24
2019-02-02T01:42:36.709Z,7.97
2019-02-02T01:48:31.705Z,10.81
2019-02-02T01:54:26.732Z,11.93
2019-02-02T02:00:21.731Z,7
2019-02-02T02:06:16.751Z,6.92
2019-02-02T02:12:11.767Z,5.15
2019-02-02T02:18:06.743Z,6.41
2019-02-02T02:24:01.761Z,5.71
2019-02-02T02:29:56.754Z,6.41
2019-02-02T02:35:51.783Z,4.22
2019-02-02T02:41:46.768Z,8.23
2019-02-02T02:47:41.795Z,1.44
2019-02-02T02:53:36.786Z,4.86
2019-02-02T02:59:31.737Z,4.84
2019-02-02T03:05:26.744Z,2.25
2019-02-02T03:11:21.789Z,0.52
2019-02-02T03:17:16.834Z,0.88
2019-02-02T03:23:11.774Z,2.86
2019-02-02T03:29:06.765Z,0.72
2019-02-02T03:35:01.829Z,1.69
2019-02-02T03:40:56.813Z,2.91
2019-02-02T03:46:51.930Z,2.86
2019-02-02T03:52:46.799Z,5.81
2019-02-02T03:58:41.813Z,3.41
2019-02-02T04:04:36.854Z,4.48
2019-02-02T04:10:31.785Z,1.68
2019-02-02T04:16:26.876Z,7.92
2019-02-02T04:22:21.838Z,6.59
2019-02-02T04:28:16.898Z,1.37
2019-02-02T04:34:11.853Z,2.88
2019-02-02T04:40:06.806Z,1.55
2019-02-02T04:46:01.818Z,3.57
2019-02-02T04:51:56.859Z,2.2
2019-02-02T04:57:51.884Z,1.29
2019-02-02T05:03:46.868Z,1.1
2019-02-02T05:09:41.851Z,3.98
2019-02-02T05:15:36.829Z,1.89
2019-02-02T05:21:31.866Z,1.64
2019-02-02T05:27:26.845Z,2.69
2019-02-02T05:33:21.885Z,2.06
2019-02-02T05:39:16.871Z,3.27
2019-02-02T05:45:11.872Z,3.59
2019-02-02T05:51:06.863Z,6.71
2019-02-02T05:57:01.867Z,9.13
2019-02-02T06:02:56.882Z,6
2019-02-02T06:08:51.873Z,8.83
2019-02-02T06:14:46.863Z,6.58
2019-02-02T06:20:41.871Z,3.51
2019-02-02T06:26:36.910Z,5.69
2019-02-02T06:32:31.914Z,4.37
2019-02-02T06:38:26.980Z,2.65
2019-02-02T06:44:21.887Z,2.67
2019-02-02T06:50:16.902Z,10.03
2019-02-02T06:56:11.893Z,3.22
2019-02-02T07:02:06.919Z,5.95
2019-02-02T07:08:01.948Z,3
2019-02-02T07:13:56.908Z,2.7
2019-02-02T07:19:51.885Z,3.84
2019-02-02T07:25:46.938Z,7.06
2019-02-02T07:31:41.929Z,2.93
2019-02-02T07:37:36.929Z,8.38
2019-02-02T07:43:31.934Z,6.7
2019-02-02T07:49:26.924Z,11.46
2019-02-02T07:55:21.945Z,5.19
2019-02-02T08:01:16.963Z,6.83
2019-02-02T08:07:11.937Z,10.65
2019-02-02T08:13:06.959Z,13.3
2019-02-02T08:19:01.961Z,71.12
2019-02-02T08:24:56.999Z,33.69
2019-02-02T08:30:52.778Z,22.95
2019-02-02T08:36:46.973Z,10.2
2019-02-02T08:42:41.988Z,14.04
2019-02-02T08:48:36.957Z,26.64
2019-02-02T08:54:31.975Z,19.51
2019-02-02T09:00:26.961Z,50.85
2019-02-02T09:06:22.127Z,37.29
2019-02-02T09:12:16.991Z,38.74
2019-02-02T09:18:11.970Z,28.16
2019-02-02T09:24:07.006Z,19.41
2019-02-02T09:30:02.006Z,13.8
2019-02-02T09:35:56.992Z,13.93
2019-02-02T09:41:52.017Z,11.77
2019-02-02T09:47:47.005Z,13.69
2019-02-02T09:53:42.072Z,44.67
2019-02-02T09:59:37.000Z,47.84
2019-02-02T10:05:32.009Z,24.12
2019-02-02T10:11:27.006Z,22.1
2019-02-02T10:17:22.017Z,31.66
2019-02-02T10:23:17.027Z,31.42
2019-02-02T10:29:12.020Z,24.71
2019-02-02T10:35:07.050Z,29.28
2019-02-02T10:41:02.167Z,58.75
2019-02-02T10:46:57.030Z,61.53
2019-02-02T10:52:52.035Z,66.17
2019-02-02T10:58:47.116Z,67.38
2019-02-02T11:04:42.170Z,59.89
2019-02-02T11:10:37.162Z,56.24
2019-02-02T11:16:32.041Z,66.66
2019-02-02T11:22:27.040Z,65.56
2019-02-02T11:28:22.066Z,59.39
2019-02-02T11:34:17.059Z,45.36
2019-02-02T11:40:12.041Z,50.93
2019-02-02T11:46:07.059Z,59.37
2019-02-02T11:52:02.095Z,79.11
2019-02-02T11:57:57.087Z,59.52
2019-02-02T12:03:52.076Z,56.19
2019-02-02T12:09:47.062Z,42.07
2019-02-02T12:15:42.068Z,17.86
2019-02-02T12:21:37.080Z,14.02
2019-02-02T12:27:32.093Z,16.94
2019-02-02T12:33:27.076Z,13.79
2019-02-02T12:39:22.087Z,17.18
2019-02-02T12:45:17.116Z,13.53
2019-02-02T12:51:12.112Z,13.3
2019-02-02T12:57:07.086Z,11.62
2019-02-02T13:03:02.136Z,5.67
2019-02-02T13:08:57.108Z,5.77
2019-02-02T13:14:52.115Z,9.33
2019-02-02T13:20:47.083Z,11.96
2019-02-02T13:26:43.160Z,10.35
2019-02-02T13:32:37.115Z,36.25
2019-02-02T13:38:32.128Z,4.26
2019-02-02T13:44:27.123Z,2.92
2019-02-02T13:50:23.221Z,3.34
2019-02-02T13:56:17.179Z,2.27
2019-02-02T14:02:12.892Z,4.88
2019-02-02T14:08:07.160Z,20.35
2019-02-02T14:14:02.166Z,6.76
2019-02-02T14:19:57.291Z,4.73
2019-02-02T14:25:52.191Z,7.87
2019-02-02T14:31:47.130Z,7.51
2019-02-02T14:43:50.619Z,3.7
2019-02-02T14:43:50.626Z,3.7
2019-02-02T14:49:32.161Z,6.16
2019-02-02T14:55:27.177Z,1.34
2019-02-02T15:01:22.171Z,5.08
2019-02-02T15:07:17.181Z,24.95
2019-02-02T15:13:12.173Z,19.88
2019-02-02T15:19:07.167Z,1.92
2019-02-02T15:25:02.209Z,5.37
2019-02-02T15:30:57.177Z,7.69
2019-02-02T15:36:52.201Z,15.76
2019-02-02T15:42:47.233Z,9.26
2019-02-02T15:48:42.574Z,9.63
2019-02-02T15:54:37.165Z,41.51
2019-02-02T16:00:32.210Z,47.48
2019-02-02T16:06:27.191Z,21.58
2019-02-02T16:12:22.244Z,17.63
2019-02-02T16:18:17.206Z,16.83
2019-02-02T16:24:12.222Z,18.83
2019-02-02T16:30:07.194Z,13.07
2019-02-02T16:36:02.219Z,17.07
2019-02-02T16:41:57.212Z,17.7
2019-02-02T16:47:52.211Z,9
2019-02-02T16:53:47.271Z,20.02
2019-02-02T16:59:42.232Z,8.62
2019-02-02T17:05:37.259Z,7.6
2019-02-02T17:11:32.234Z,5.83
2019-02-02T17:17:27.235Z,3.7
2019-02-02T17:23:22.233Z,4.83
2019-02-02T17:29:17.246Z,7.04
2019-02-02T17:35:12.277Z,27.74
2019-02-02T17:41:07.235Z,4.82
2019-02-02T17:47:02.251Z,101.02
2019-02-02T17:52:57.249Z,12.55
2019-02-02T17:58:52.258Z,7.89
2019-02-02T18:04:47.281Z,13.12
2019-02-02T18:10:42.255Z,9.2
2019-02-02T18:16:37.270Z,7.37
2019-02-02T18:22:32.285Z,6.61
2019-02-02T18:28:27.290Z,6
2019-02-02T18:34:22.314Z,21.99
2019-02-02T18:40:17.271Z,35.72
2019-02-02T18:46:12.279Z,31.13
2019-02-02T18:52:07.287Z,14.3
2019-02-02T18:58:02.277Z,20.77
2019-02-02T19:03:57.327Z,29.34
2019-02-02T19:09:52.282Z,38.45
2019-02-02T19:15:47.306Z,57.97
2019-02-02T19:21:42.314Z,30.42
2019-02-02T19:27:37.301Z,34.51
2019-02-02T19:33:32.299Z,38.53
2019-02-02T19:39:27.420Z,78.47
2019-02-02T19:45:22.303Z,60.04
2019-02-02T19:51:17.343Z,31.44
2019-02-02T19:57:12.362Z,24.29
2019-02-02T20:03:07.316Z,22.53
2019-02-02T20:09:02.357Z,32.35
2019-02-02T20:14:57.336Z,34.96
2019-02-02T20:20:52.402Z,22.49
2019-02-02T20:26:47.377Z,21.21
2019-02-02T20:32:42.342Z,36.43
2019-02-02T20:38:40.029Z,36.12
2019-02-02T20:44:32.360Z,39.63
2019-02-02T20:50:27.334Z,38.42
2019-02-02T20:56:22.360Z,29.33
2019-02-02T21:02:17.383Z,45.6
2019-02-02T21:08:12.356Z,41.67
2019-02-02T21:14:07.396Z,43.69
2019-02-02T21:20:02.383Z,42.8
2019-02-02T21:25:57.367Z,46.48
2019-02-02T21:31:52.366Z,45.37
2019-02-02T21:37:47.440Z,41.55
2019-02-02T21:43:42.379Z,31.78
2019-02-02T21:49:37.373Z,29.58
2019-02-02T21:55:32.424Z,22.44
2019-02-02T22:01:27.386Z,32.38
2019-02-02T22:07:22.373Z,38.5
2019-02-02T22:13:17.411Z,29.54
2019-02-02T22:19:12.401Z,23.96
2019-02-02T22:25:07.386Z,20.8
2019-02-02T22:31:02.405Z,24.01
2019-02-02T22:36:57.461Z,20.53
2019-02-02T22:42:52.408Z,26.93
2019-02-02T22:48:47.451Z,28.85
2019-02-02T22:54:42.421Z,38.68
2019-02-02T23:00:37.440Z,23.67
2019-02-02T23:06:39.028Z,29.47
2019-02-02T23:12:27.461Z,30.54
2019-02-02T23:18:22.422Z,31.89
2019-02-02T23:24:17.461Z,15.97
2019-02-02T23:30:12.491Z,22.67
2019-02-02T23:36:07.460Z,30.3
2019-02-02T23:42:02.446Z,35.81
2019-02-02T23:47:57.442Z,30.75
2019-02-02T23:53:52.483Z,33.12
2019-02-02T23:59:47.472Z,30.5
